createdAt,value
2018-09-03T00:00:22.811Z,15.72
2018-09-03T00:01:23.054Z,15.62
2018-09-03T00:02:23.292Z,15.72
2018-09-03T00:03:23.539Z,15.72
2018-09-03T00:04:23.777Z,15.72
2018-09-03T00:05:24.019Z,15.75
2018-09-03T00:06:24.260Z,15.76
2018-09-03T00:07:24.500Z,15.71
2018-09-03T00:08:24.743Z,15.71
2018-09-03T00:09:24.985Z,15.72
2018-09-03T00:10:25.226Z,15.74
2018-09-03T00:11:25.469Z,15.76
2018-09-03T00:12:25.711Z,15.67
2018-09-03T00:13:25.951Z,15.68
2018-09-03T00:14:26.200Z,15.75
2018-09-03T00:15:26.436Z,15.72
2018-09-03T00:16:26.678Z,15.75
2018-09-03T00:17:26.919Z,15.72
2018-09-03T00:18:27.160Z,15.72
2018-09-03T00:19:27.402Z,15.74
2018-09-03T00:20:27.644Z,15.75
2018-09-03T00:21:27.886Z,15.72
2018-09-03T00:22:28.128Z,15.71
2018-09-03T00:23:28.368Z,15.71
2018-09-03T00:24:28.610Z,15.72
2018-09-03T00:25:28.851Z,15.72
2018-09-03T00:26:29.094Z,15.74
2018-09-03T00:27:29.335Z,15.76
2018-09-03T00:28:29.579Z,15.72
2018-09-03T00:29:29.819Z,15.75
2018-09-03T00:30:30.063Z,15.72
2018-09-03T00:31:30.305Z,15.78
2018-09-03T00:32:30.547Z,15.74
2018-09-03T00:33:30.791Z,15.75
2018-09-03T00:34:31.034Z,15.74
2018-09-03T00:35:31.277Z,15.74
2018-09-03T00:36:31.518Z,15.68
2018-09-03T00:37:31.759Z,15.74
2018-09-03T00:38:32.001Z,15.72
2018-09-03T00:39:32.244Z,15.75
2018-09-03T00:40:32.489Z,15.71
2018-09-03T00:41:32.730Z,15.78
2018-09-03T00:42:32.969Z,15.74
2018-09-03T00:43:33.215Z,15.74
2018-09-03T00:44:33.450Z,15.76
2018-09-03T00:45:33.696Z,15.75
2018-09-03T00:46:33.939Z,15.76
2018-09-03T00:47:34.177Z,15.78
2018-09-03T00:48:34.420Z,15.78
2018-09-03T00:49:34.661Z,15.75
2018-09-03T00:50:34.903Z,15.75
2018-09-03T00:51:35.144Z,15.78
2018-09-03T00:52:35.385Z,15.80
2018-09-03T00:53:35.626Z,15.75
2018-09-03T00:54:35.868Z,15.78
2018-09-03T00:55:36.110Z,15.75
2018-09-03T00:56:36.352Z,15.76
2018-09-03T00:57:36.601Z,15.78
2018-09-03T00:58:36.838Z,15.84
2018-09-03T00:59:37.084Z,15.86
2018-09-03T01:00:37.314Z,15.84
2018-09-03T01:01:37.553Z,15.80
2018-09-03T01:02:37.795Z,15.92
2018-09-03T01:03:38.036Z,15.83
2018-09-03T01:04:38.281Z,15.84
2018-09-03T01:05:38.520Z,15.84
2018-09-03T01:06:38.762Z,15.80
2018-09-03T01:07:39.004Z,15.82
2018-09-03T01:08:39.246Z,15.84
2018-09-03T01:09:39.489Z,15.90
2018-09-03T01:10:39.730Z,15.86
2018-09-03T01:11:39.973Z,15.90
2018-09-03T01:12:40.217Z,15.92
2018-09-03T01:13:40.457Z,15.94
2018-09-03T01:14:40.702Z,15.93
2018-09-03T01:15:40.948Z,16.02
2018-09-03T01:16:41.187Z,15.94
2018-09-03T01:17:41.428Z,15.92
2018-09-03T01:18:41.671Z,15.90
2018-09-03T01:19:41.912Z,15.96
2018-09-03T01:20:42.155Z,16.01
2018-09-03T01:21:42.398Z,15.94
2018-09-03T01:22:42.639Z,15.97
2018-09-03T01:23:42.882Z,16.00
2018-09-03T01:24:43.124Z,16.02
2018-09-03T01:25:43.367Z,15.94
2018-09-03T01:26:43.610Z,16.02
2018-09-03T01:27:43.851Z,15.97
2018-09-03T01:28:44.094Z,15.90
2018-09-03T01:29:44.389Z,15.90
2018-09-03T01:30:44.578Z,16.00
2018-09-03T01:31:44.822Z,16.05
2018-09-03T01:32:45.065Z,16.02
2018-09-03T01:33:45.307Z,16.02
2018-09-03T01:34:45.549Z,16.01
2018-09-03T01:35:45.791Z,16.02
2018-09-03T01:36:46.034Z,16.04
2018-09-03T01:37:46.279Z,16.04
2018-09-03T01:38:46.519Z,16.02
2018-09-03T01:39:46.762Z,15.94
2018-09-03T01:40:47.004Z,15.94
2018-09-03T01:41:47.249Z,15.94
2018-09-03T01:42:47.491Z,15.92
2018-09-03T01:43:47.731Z,15.89
2018-09-03T01:44:47.974Z,15.84
2018-09-03T01:45:48.217Z,15.92
2018-09-03T01:46:48.460Z,15.87
2018-09-03T01:47:48.702Z,15.93
2018-09-03T01:48:48.944Z,16.00
2018-09-03T01:49:49.187Z,16.07
2018-09-03T01:50:49.429Z,15.93
2018-09-03T01:51:49.670Z,15.92
2018-09-03T01:52:49.914Z,15.94
2018-09-03T01:53:50.155Z,15.96
2018-09-03T01:54:50.397Z,15.93
2018-09-03T01:55:50.641Z,15.90
2018-09-03T01:56:50.882Z,15.90
2018-09-03T01:57:51.124Z,15.97
2018-09-03T01:58:51.367Z,15.97
2018-09-03T01:59:51.609Z,15.92
2018-09-03T02:00:51.854Z,15.93
2018-09-03T02:01:52.096Z,16.00
2018-09-03T02:02:52.337Z,15.90
2018-09-03T02:03:52.581Z,15.90
2018-09-03T02:04:52.823Z,16.05
2018-09-03T02:05:53.068Z,16.04
2018-09-03T02:06:53.310Z,16.05
2018-09-03T02:07:53.551Z,16.02
2018-09-03T02:08:53.793Z,16.02
2018-09-03T02:09:54.036Z,15.94
2018-09-03T02:10:54.278Z,16.05
2018-09-03T02:11:54.521Z,15.92
2018-09-03T02:12:54.764Z,16.01
2018-09-03T02:13:55.006Z,15.94
2018-09-03T02:14:55.248Z,16.04
2018-09-03T02:15:55.491Z,16.02
2018-09-03T02:16:55.734Z,16.05
2018-09-03T02:17:55.976Z,16.02
2018-09-03T02:18:56.221Z,16.09
2018-09-03T02:19:56.463Z,16.05
2018-09-03T02:20:56.707Z,16.02
2018-09-03T02:21:56.948Z,16.04
2018-09-03T02:22:57.190Z,15.94
2018-09-03T02:23:57.432Z,16.05
2018-09-03T02:24:57.677Z,16.02
2018-09-03T02:25:57.923Z,16.09
2018-09-03T02:26:58.159Z,16.01
2018-09-03T02:27:58.403Z,16.02
2018-09-03T02:28:58.645Z,16.07
2018-09-03T02:29:58.886Z,16.00
2018-09-03T02:30:59.122Z,16.01
2018-09-03T02:31:59.381Z,16.07
2018-09-03T02:32:59.623Z,16.14
2018-09-03T02:33:59.867Z,16.09
2018-09-03T02:35:00.110Z,16.07
2018-09-03T02:36:00.351Z,16.11
2018-09-03T02:37:00.593Z,16.04
2018-09-03T02:38:00.837Z,16.07
2018-09-03T02:39:01.080Z,16.07
2018-09-03T02:40:01.321Z,16.00
2018-09-03T02:41:01.564Z,16.08
2018-09-03T02:42:01.806Z,16.05
2018-09-03T02:43:02.049Z,16.04
2018-09-03T02:44:02.296Z,16.02
2018-09-03T02:45:02.534Z,16.04
2018-09-03T02:46:02.777Z,16.02
2018-09-03T02:47:03.021Z,16.02
2018-09-03T02:48:03.263Z,15.92
2018-09-03T02:49:03.505Z,15.94
2018-09-03T02:50:03.747Z,16.01
2018-09-03T02:51:03.988Z,15.90
2018-09-03T02:52:04.233Z,16.01
2018-09-03T02:53:04.475Z,15.94
2018-09-03T02:54:04.717Z,15.94
2018-09-03T02:55:04.961Z,15.94
2018-09-03T02:56:05.206Z,15.94
2018-09-03T02:57:05.447Z,16.02
2018-09-03T02:58:05.688Z,15.92
2018-09-03T02:59:05.933Z,16.02
2018-09-03T03:00:06.177Z,16.07
2018-09-03T03:01:06.416Z,16.07
2018-09-03T03:02:06.659Z,16.02
2018-09-03T03:03:06.902Z,16.01
2018-09-03T03:04:07.149Z,16.00
2018-09-03T03:05:07.388Z,15.96
2018-09-03T03:06:07.630Z,16.00
2018-09-03T03:07:07.872Z,16.01
2018-09-03T03:08:08.114Z,15.97
2018-09-03T03:09:08.357Z,16.00
2018-09-03T03:10:08.599Z,15.92
2018-09-03T03:11:08.842Z,15.94
2018-09-03T03:12:09.083Z,15.89
2018-09-03T03:13:09.325Z,15.90
2018-09-03T03:14:09.568Z,15.93
2018-09-03T03:15:09.812Z,15.97
2018-09-03T03:16:10.052Z,16.00
2018-09-03T03:17:10.293Z,16.00
2018-09-03T03:18:10.537Z,15.94
2018-09-03T03:19:10.777Z,15.93
2018-09-03T03:20:11.022Z,15.96
2018-09-03T03:21:11.262Z,15.96
2018-09-03T03:22:11.504Z,15.92
2018-09-03T03:23:11.747Z,15.94
2018-09-03T03:24:11.988Z,16.02
2018-09-03T03:25:12.235Z,15.93
2018-09-03T03:26:12.474Z,15.94
2018-09-03T03:27:12.719Z,15.96
2018-09-03T03:28:12.958Z,15.96
2018-09-03T03:29:13.201Z,16.02
2018-09-03T03:30:13.443Z,16.01
2018-09-03T03:31:13.685Z,15.97
2018-09-03T03:32:13.928Z,15.94
2018-09-03T03:33:14.173Z,15.94
2018-09-03T03:34:14.413Z,15.96
2018-09-03T03:35:14.655Z,15.96
2018-09-03T03:36:14.897Z,15.87
2018-09-03T03:37:15.140Z,16.00
2018-09-03T03:38:15.386Z,15.90
2018-09-03T03:39:15.623Z,16.01
2018-09-03T03:40:15.868Z,16.02
2018-09-03T03:41:16.110Z,15.94
2018-09-03T03:42:16.352Z,15.87
2018-09-03T03:43:16.594Z,16.02
2018-09-03T03:44:16.837Z,15.92
2018-09-03T03:45:17.077Z,15.94
2018-09-03T03:46:17.324Z,16.01
2018-09-03T03:47:17.563Z,16.02
2018-09-03T03:48:17.809Z,16.05
2018-09-03T03:49:18.049Z,15.96
2018-09-03T03:50:18.289Z,15.90
2018-09-03T03:51:18.532Z,15.96
2018-09-03T03:52:18.774Z,16.00
2018-09-03T03:53:19.016Z,15.90
2018-09-03T03:54:19.259Z,16.02
2018-09-03T03:55:19.504Z,15.97
2018-09-03T03:56:19.743Z,15.97
2018-09-03T03:57:19.986Z,15.94
2018-09-03T03:58:20.229Z,15.96
2018-09-03T03:59:20.471Z,15.89
2018-09-03T04:00:20.714Z,15.86
2018-09-03T04:01:20.955Z,15.90
2018-09-03T04:02:21.196Z,15.86
2018-09-03T04:03:21.440Z,15.86
2018-09-03T04:04:21.679Z,15.86
2018-09-03T04:05:21.923Z,15.86
2018-09-03T04:06:22.164Z,15.86
2018-09-03T04:07:22.406Z,15.89
2018-09-03T04:08:22.649Z,15.92
2018-09-03T04:09:22.892Z,15.83
2018-09-03T04:10:23.133Z,15.83
2018-09-03T04:11:23.375Z,15.86
2018-09-03T04:12:23.620Z,15.86
2018-09-03T04:13:23.859Z,15.89
2018-09-03T04:14:24.100Z,15.89
2018-09-03T04:15:24.344Z,15.82
2018-09-03T04:16:24.585Z,15.86
2018-09-03T04:17:24.827Z,15.78
2018-09-03T04:18:25.069Z,15.89
2018-09-03T04:19:25.310Z,15.84
2018-09-03T04:20:25.552Z,15.90
2018-09-03T04:21:25.794Z,15.86
2018-09-03T04:22:26.036Z,15.94
2018-09-03T04:23:26.512Z,15.89
2018-09-03T04:24:26.521Z,15.86
2018-09-03T04:25:26.761Z,15.87
2018-09-03T04:26:27.004Z,15.82
2018-09-03T04:27:27.247Z,15.89
2018-09-03T04:28:27.489Z,15.86
2018-09-03T04:29:27.731Z,15.83
2018-09-03T04:30:27.972Z,15.86
2018-09-03T04:31:28.216Z,15.84
2018-09-03T04:32:28.459Z,15.90
2018-09-03T04:33:28.698Z,15.82
2018-09-03T04:34:28.940Z,15.86
2018-09-03T04:35:29.182Z,15.86
2018-09-03T04:36:29.425Z,15.94
2018-09-03T04:37:29.666Z,15.93
2018-09-03T04:38:29.908Z,15.93
2018-09-03T04:39:30.150Z,15.94
2018-09-03T04:40:30.393Z,15.94
2018-09-03T04:41:30.634Z,16.00
2018-09-03T04:42:30.877Z,15.93
2018-09-03T04:43:31.120Z,15.93
2018-09-03T04:44:31.361Z,15.94
2018-09-03T04:45:31.603Z,15.94
2018-09-03T04:46:31.845Z,15.93
2018-09-03T04:47:32.088Z,15.97
2018-09-03T04:48:32.331Z,15.97
2018-09-03T04:49:32.574Z,15.97
2018-09-03T04:50:32.815Z,15.94
2018-09-03T04:51:33.062Z,16.05
2018-09-03T04:52:33.302Z,16.04
2018-09-03T04:53:33.543Z,16.09
2018-09-03T04:54:33.799Z,16.02
2018-09-03T04:55:34.029Z,16.09
2018-09-03T04:56:34.272Z,16.04
2018-09-03T04:57:34.514Z,16.05
2018-09-03T04:58:34.756Z,16.08
2018-09-03T04:59:35.003Z,16.12
2018-09-03T05:00:35.263Z,16.07
2018-09-03T05:01:35.504Z,16.11
2018-09-03T05:02:35.747Z,16.12
2018-09-03T05:03:35.988Z,16.09
2018-09-03T05:04:36.230Z,16.11
2018-09-03T05:05:36.472Z,16.11
2018-09-03T05:06:36.747Z,16.09
2018-09-03T05:07:36.960Z,16.21
2018-09-03T05:08:37.200Z,16.17
2018-09-03T05:09:37.443Z,16.21
2018-09-03T05:10:37.684Z,16.24
2018-09-03T05:11:37.950Z,16.20
2018-09-03T05:12:38.168Z,16.17
2018-09-03T05:13:38.411Z,16.24
2018-09-03T05:14:38.652Z,16.21
2018-09-03T05:15:38.896Z,16.20
2018-09-03T05:16:39.138Z,16.14
2018-09-03T05:17:39.380Z,16.24
2018-09-03T05:18:39.622Z,16.21
2018-09-03T05:19:39.861Z,16.15
2018-09-03T05:20:40.099Z,16.23
2018-09-03T05:21:40.342Z,16.15
2018-09-03T05:22:40.585Z,16.17
2018-09-03T05:23:40.821Z,16.11
2018-09-03T05:24:41.068Z,16.02
2018-09-03T05:25:41.310Z,16.07
2018-09-03T05:26:41.553Z,16.17
2018-09-03T05:27:41.796Z,16.14
2018-09-03T05:28:42.037Z,16.20
2018-09-03T05:29:42.280Z,16.21
2018-09-03T05:30:42.522Z,16.17
2018-09-03T05:31:42.764Z,16.23
2018-09-03T05:32:43.005Z,16.20
2018-09-03T05:33:43.248Z,16.28
2018-09-03T05:34:43.490Z,16.25
2018-09-03T05:35:43.732Z,16.24
2018-09-03T05:36:43.983Z,16.34
2018-09-03T05:37:44.236Z,16.33
2018-09-03T05:38:44.494Z,16.33
2018-09-03T05:39:44.747Z,16.33
2018-09-03T05:40:44.988Z,16.38
2018-09-03T05:41:45.246Z,16.48
2018-09-03T05:42:45.490Z,16.34
2018-09-03T05:43:45.800Z,16.46
2018-09-03T05:44:46.004Z,16.52
2018-09-03T05:45:46.248Z,16.41
2018-09-03T05:46:46.502Z,16.34
2018-09-03T05:47:46.752Z,16.48
2018-09-03T05:48:47.006Z,16.56
2018-09-03T05:49:47.257Z,16.52
2018-09-03T05:50:47.571Z,16.41
2018-09-03T05:51:47.749Z,16.46
2018-09-03T05:52:48.006Z,16.48
2018-09-03T05:53:48.252Z,16.56
2018-09-03T05:54:48.512Z,16.56
2018-09-03T05:55:48.757Z,16.61
2018-09-03T05:56:49.033Z,16.66
2018-09-03T05:57:49.284Z,16.61
2018-09-03T05:58:49.544Z,16.52
2018-09-03T05:59:49.799Z,16.66
2018-09-03T06:00:50.041Z,16.57
2018-09-03T06:01:50.375Z,16.57
2018-09-03T06:02:50.623Z,16.64
2018-09-03T06:03:50.884Z,16.61
2018-09-03T06:04:51.190Z,16.61
2018-09-03T06:05:51.395Z,16.68
2018-09-03T06:06:51.634Z,16.73
2018-09-03T06:07:51.887Z,16.60
2018-09-03T06:08:52.155Z,16.68
2018-09-03T06:09:52.388Z,16.79
2018-09-03T06:10:52.637Z,16.79
2018-09-03T06:11:52.880Z,16.83
2018-09-03T06:12:53.122Z,16.91
2018-09-03T06:13:53.364Z,16.91
2018-09-03T06:14:53.608Z,17.00
2018-09-03T06:15:53.865Z,17.01
2018-09-03T06:16:54.129Z,16.91
2018-09-03T06:17:54.483Z,16.98
2018-09-03T06:18:54.645Z,16.96
2018-09-03T06:19:54.890Z,16.96
2018-09-03T06:20:55.147Z,16.93
2018-09-03T06:21:55.546Z,16.89
2018-09-03T06:22:55.818Z,16.94
2018-09-03T06:23:56.079Z,17.00
2018-09-03T06:24:56.329Z,17.08
2018-09-03T06:25:56.580Z,16.96
2018-09-03T06:26:56.817Z,16.98
2018-09-03T06:27:57.086Z,17.12
2018-09-03T06:28:57.346Z,17.08
2018-09-03T06:29:57.595Z,17.11
2018-09-03T06:30:57.838Z,17.12
2018-09-03T06:31:58.081Z,17.08
2018-09-03T06:32:58.341Z,17.16
2018-09-03T06:33:58.570Z,17.22
2018-09-03T06:34:58.814Z,17.18
2018-09-03T06:35:59.104Z,17.31
2018-09-03T06:36:59.300Z,17.40
2018-09-03T06:37:59.545Z,17.51
2018-09-03T06:38:59.785Z,17.58
2018-09-03T06:40:00.029Z,17.68
2018-09-03T06:41:00.272Z,17.77
2018-09-03T06:42:00.514Z,17.87
2018-09-03T06:43:00.758Z,17.81
2018-09-03T06:44:01.002Z,17.84
2018-09-03T06:45:01.250Z,17.79
2018-09-03T06:46:01.491Z,17.84
2018-09-03T06:47:01.734Z,17.78
2018-09-03T06:48:01.979Z,17.86
2018-09-03T06:49:02.221Z,17.95
2018-09-03T06:50:02.466Z,17.82
2018-09-03T06:51:02.708Z,17.90
2018-09-03T06:52:02.951Z,17.78
2018-09-03T06:53:03.195Z,17.86
2018-09-03T06:54:03.437Z,17.78
2018-09-03T06:55:03.681Z,17.77
2018-09-03T06:56:03.925Z,17.72
2018-09-03T06:57:04.173Z,17.66
2018-09-03T06:58:04.412Z,17.68
2018-09-03T06:59:04.658Z,17.66
2018-09-03T07:00:04.898Z,17.68
2018-09-03T07:01:05.143Z,17.77
2018-09-03T07:02:05.384Z,17.84
2018-09-03T07:03:05.629Z,17.87
2018-09-03T07:04:05.873Z,17.99
2018-09-03T07:05:06.117Z,17.97
2018-09-03T07:06:06.361Z,18.07
2018-09-03T07:07:06.605Z,18.12
2018-09-03T07:08:06.848Z,18.32
2018-09-03T07:09:07.093Z,18.29
2018-09-03T07:10:07.338Z,18.35
2018-09-03T07:11:07.583Z,18.33
2018-09-03T07:12:07.824Z,18.30
2018-09-03T07:13:08.069Z,18.45
2018-09-03T07:14:08.314Z,18.36
2018-09-03T07:15:08.557Z,18.41
2018-09-03T07:16:08.801Z,18.44
2018-09-03T07:17:09.047Z,18.45
2018-09-03T07:18:09.289Z,18.50
2018-09-03T07:19:09.533Z,18.58
2018-09-03T07:20:09.777Z,18.66
2018-09-03T07:21:10.022Z,18.54
2018-09-03T07:22:10.265Z,18.65
2018-09-03T07:23:10.508Z,18.60
2018-09-03T07:24:10.753Z,18.63
2018-09-03T07:25:10.997Z,18.65
2018-09-03T07:26:11.240Z,18.54
2018-09-03T07:27:11.484Z,18.48
2018-09-03T07:28:11.728Z,18.54
2018-09-03T07:29:11.972Z,18.47
2018-09-03T07:30:12.217Z,18.32
2018-09-03T07:31:12.460Z,18.41
2018-09-03T07:32:12.707Z,18.29
2018-09-03T07:33:12.952Z,18.35
2018-09-03T07:34:13.196Z,18.26
2018-09-03T07:35:13.454Z,18.05
2018-09-03T07:36:13.683Z,18.05
2018-09-03T07:37:13.928Z,17.92
2018-09-03T07:38:14.173Z,17.82
2018-09-03T07:39:14.415Z,17.81
2018-09-03T07:40:14.660Z,17.79
2018-09-03T07:41:14.906Z,17.84
2018-09-03T07:42:15.149Z,17.71
2018-09-03T07:43:15.392Z,17.66
2018-09-03T07:44:15.700Z,17.66
2018-09-03T07:45:15.879Z,17.59
2018-09-03T07:46:16.124Z,17.78
2018-09-03T07:47:16.367Z,17.87
2018-09-03T07:48:16.641Z,17.86
2018-09-03T07:49:16.854Z,17.89
2018-09-03T07:50:17.098Z,17.99
2018-09-03T07:51:17.344Z,17.97
2018-09-03T07:52:17.586Z,18.02
2018-09-03T07:53:17.829Z,17.92
2018-09-03T07:54:18.072Z,17.96
2018-09-03T07:55:18.316Z,17.87
2018-09-03T07:56:18.558Z,17.81
2018-09-03T07:57:18.802Z,17.86
2018-09-03T07:58:19.045Z,17.74
2018-09-03T07:59:19.289Z,17.74
2018-09-03T08:00:19.532Z,17.68
2018-09-03T08:01:19.804Z,17.72
2018-09-03T08:02:20.020Z,17.68
2018-09-03T08:03:20.260Z,17.72
2018-09-03T08:04:20.507Z,17.62
2018-09-03T08:05:20.748Z,17.63
2018-09-03T08:06:20.991Z,17.68
2018-09-03T08:07:21.254Z,17.58
2018-09-03T08:08:21.480Z,17.56
2018-09-03T08:09:21.722Z,17.56
2018-09-03T08:10:21.967Z,17.55
2018-09-03T08:11:22.211Z,17.71
2018-09-03T08:12:22.450Z,17.64
2018-09-03T08:13:22.696Z,17.74
2018-09-03T08:14:22.937Z,17.72
2018-09-03T08:15:23.179Z,17.84
2018-09-03T08:16:23.423Z,17.84
2018-09-03T08:17:23.666Z,17.95
2018-09-03T08:18:23.910Z,18.00
2018-09-03T08:19:24.160Z,18.02
2018-09-03T08:20:24.400Z,18.00
2018-09-03T08:21:24.643Z,18.05
2018-09-03T08:22:24.887Z,17.96
2018-09-03T08:23:25.131Z,17.89
2018-09-03T08:24:25.374Z,17.86
2018-09-03T08:25:25.617Z,17.82
2018-09-03T08:26:25.863Z,17.92
2018-09-03T08:27:26.106Z,17.84
2018-09-03T08:28:26.348Z,17.86
2018-09-03T08:29:26.592Z,17.86
2018-09-03T08:30:26.838Z,17.77
2018-09-03T08:31:27.081Z,17.90
2018-09-03T08:32:27.323Z,17.72
2018-09-03T08:33:27.569Z,17.86
2018-09-03T08:34:27.812Z,17.75
2018-09-03T08:35:28.065Z,17.70
2018-09-03T08:36:28.298Z,17.68
2018-09-03T08:37:28.548Z,17.86
2018-09-03T08:38:28.787Z,17.72
2018-09-03T08:39:29.031Z,17.72
2018-09-03T08:40:29.275Z,17.74
2018-09-03T08:41:29.517Z,17.86
2018-09-03T08:42:29.766Z,17.82
2018-09-03T08:43:30.005Z,17.89
2018-09-03T08:44:30.249Z,18.00
2018-09-03T08:45:30.494Z,18.05
2018-09-03T08:46:30.734Z,18.10
2018-09-03T08:47:30.982Z,18.23
2018-09-03T08:48:31.223Z,18.26
2018-09-03T08:49:31.466Z,18.25
2018-09-03T08:50:31.710Z,18.29
2018-09-03T08:51:31.954Z,18.33
2018-09-03T08:52:32.199Z,18.30
2018-09-03T08:53:32.445Z,18.39
2018-09-03T08:54:32.688Z,18.33
2018-09-03T08:55:32.933Z,18.45
2018-09-03T08:56:33.175Z,18.32
2018-09-03T08:57:33.420Z,18.52
2018-09-03T08:58:33.664Z,18.58
2018-09-03T08:59:33.908Z,18.63
2018-09-03T09:00:34.154Z,18.54
2018-09-03T09:01:34.396Z,18.66
2018-09-03T09:02:34.643Z,18.81
2018-09-03T09:03:34.884Z,18.85
2018-09-03T09:04:35.129Z,18.81
2018-09-03T09:05:35.372Z,18.76
2018-09-03T09:06:35.620Z,18.75
2018-09-03T09:07:35.862Z,18.70
2018-09-03T09:08:36.110Z,18.75
2018-09-03T09:09:36.351Z,18.84
2018-09-03T09:10:36.595Z,18.80
2018-09-03T09:11:36.901Z,18.50
2018-09-03T09:12:37.085Z,18.62
2018-09-03T09:13:37.329Z,18.55
2018-09-03T09:14:37.572Z,18.41
2018-09-03T09:15:37.818Z,18.27
2018-09-03T09:16:38.062Z,18.21
2018-09-03T09:17:38.350Z,18.26
2018-09-03T09:18:38.556Z,18.29
2018-09-03T09:19:38.797Z,18.27
2018-09-03T09:20:39.042Z,18.26
2018-09-03T09:21:39.291Z,18.32
2018-09-03T09:22:39.533Z,18.26
2018-09-03T09:23:39.775Z,18.27
2018-09-03T09:24:40.019Z,18.23
2018-09-03T09:25:40.263Z,18.12
2018-09-03T09:26:40.508Z,18.10
2018-09-03T09:27:40.752Z,18.11
2018-09-03T09:28:40.998Z,18.05
2018-09-03T09:29:41.241Z,18.00
2018-09-03T09:30:41.485Z,17.92
2018-09-03T09:31:41.730Z,17.89
2018-09-03T09:32:41.973Z,18.02
2018-09-03T09:33:42.217Z,17.96
2018-09-03T09:34:42.461Z,17.92
2018-09-03T09:35:42.740Z,17.86
2018-09-03T09:36:42.959Z,17.89
2018-09-03T09:37:43.192Z,17.82
2018-09-03T09:38:43.441Z,17.90
2018-09-03T09:39:43.678Z,17.92
2018-09-03T09:40:43.924Z,17.96
2018-09-03T09:41:44.168Z,18.03
2018-09-03T09:42:44.419Z,18.05
2018-09-03T09:43:44.657Z,18.08
2018-09-03T09:44:44.904Z,18.14
2018-09-03T09:45:45.145Z,18.15
2018-09-03T09:46:45.388Z,18.07
2018-09-03T09:47:45.632Z,18.11
2018-09-03T09:48:45.875Z,18.15
2018-09-03T09:49:46.120Z,17.95
2018-09-03T09:50:46.365Z,18.05
2018-09-03T09:51:46.605Z,18.02
2018-09-03T09:52:46.850Z,17.99
2018-09-03T09:53:47.095Z,18.12
2018-09-03T09:54:47.361Z,18.15
2018-09-03T09:55:47.582Z,18.14
2018-09-03T09:56:47.824Z,18.12
2018-09-03T09:57:48.070Z,18.12
2018-09-03T09:58:48.314Z,18.11
2018-09-03T09:59:48.555Z,18.10
2018-09-03T10:00:48.803Z,18.12
2018-09-03T10:01:49.043Z,18.14
2018-09-03T10:02:49.287Z,18.11
2018-09-03T10:03:49.531Z,18.05
2018-09-03T10:04:49.775Z,18.08
2018-09-03T10:05:50.017Z,18.12
2018-09-03T10:06:50.262Z,18.12
2018-09-03T10:07:50.507Z,18.11
2018-09-03T10:08:50.749Z,18.10
2018-09-03T10:09:50.992Z,18.14
2018-09-03T10:10:51.236Z,18.14
2018-09-03T10:11:51.483Z,18.15
2018-09-03T10:12:51.723Z,18.08
2018-09-03T10:13:51.966Z,18.08
2018-09-03T10:14:52.213Z,18.11
2018-09-03T10:15:52.453Z,18.15
2018-09-03T10:16:52.700Z,18.17
2018-09-03T10:17:52.943Z,18.14
2018-09-03T10:18:53.186Z,18.08
2018-09-03T10:19:53.430Z,18.25
2018-09-03T10:20:53.721Z,18.35
2018-09-03T10:21:53.918Z,18.29
2018-09-03T10:22:54.162Z,18.41
2018-09-03T10:23:54.405Z,18.45
2018-09-03T10:24:54.654Z,18.51
2018-09-03T10:25:54.892Z,18.58
2018-09-03T10:26:55.137Z,18.65
2018-09-03T10:27:55.381Z,18.73
2018-09-03T10:28:55.625Z,18.80
2018-09-03T10:29:55.868Z,18.81
2018-09-03T10:30:56.115Z,18.80
2018-09-03T10:31:56.406Z,18.81
2018-09-03T10:32:56.602Z,18.84
2018-09-03T10:33:56.846Z,18.90
2018-09-03T10:34:57.091Z,18.78
2018-09-03T10:35:57.335Z,18.85
2018-09-03T10:36:57.580Z,18.80
2018-09-03T10:37:57.823Z,18.80
2018-09-03T10:38:58.067Z,18.72
2018-09-03T10:39:58.321Z,18.75
2018-09-03T10:40:58.557Z,18.76
2018-09-03T10:41:58.805Z,18.81
2018-09-03T10:42:59.045Z,18.66
2018-09-03T10:43:59.289Z,18.62
2018-09-03T10:44:59.534Z,18.52
2018-09-03T10:45:59.779Z,18.63
2018-09-03T10:47:00.034Z,18.65
2018-09-03T10:48:00.266Z,18.66
2018-09-03T10:49:00.518Z,18.62
2018-09-03T10:50:00.758Z,18.69
2018-09-03T10:51:01.000Z,18.60
2018-09-03T10:52:01.244Z,18.66
2018-09-03T10:53:01.489Z,18.63
2018-09-03T10:54:01.734Z,18.67
2018-09-03T10:55:01.977Z,18.73
2018-09-03T10:56:02.275Z,18.72
2018-09-03T10:57:02.465Z,18.70
2018-09-03T10:58:02.711Z,18.76
2018-09-03T10:59:02.956Z,18.72
2018-09-03T11:00:03.198Z,18.73
2018-09-03T11:01:03.445Z,18.75
2018-09-03T11:02:03.689Z,18.80
2018-09-03T11:03:03.932Z,18.84
2018-09-03T11:04:04.181Z,18.81
2018-09-03T11:05:04.428Z,18.73
2018-09-03T11:06:04.667Z,18.81
2018-09-03T11:07:04.910Z,18.73
2018-09-03T11:08:05.155Z,18.63
2018-09-03T11:09:05.398Z,18.55
2018-09-03T11:10:05.643Z,18.63
2018-09-03T11:11:05.888Z,18.67
2018-09-03T11:12:06.133Z,18.62
2018-09-03T11:13:06.389Z,18.63
2018-09-03T11:14:06.654Z,18.63
2018-09-03T11:15:06.864Z,18.66
2018-09-03T11:16:07.116Z,18.70
2018-09-03T11:17:07.354Z,18.72
2018-09-03T11:18:07.599Z,18.73
2018-09-03T11:19:07.843Z,18.82
2018-09-03T11:20:08.144Z,18.81
2018-09-03T11:21:08.394Z,18.91
2018-09-03T11:22:08.578Z,18.91
2018-09-03T11:23:08.825Z,18.87
2018-09-03T11:24:09.067Z,18.85
2018-09-03T11:25:09.356Z,18.84
2018-09-03T11:26:09.555Z,18.82
2018-09-03T11:27:09.813Z,18.84
2018-09-03T11:28:10.046Z,18.80
2018-09-03T11:29:10.290Z,18.82
2018-09-03T11:30:10.534Z,18.82
2018-09-03T11:31:10.779Z,18.85
2018-09-03T11:32:11.023Z,18.85
2018-09-03T11:33:11.269Z,18.85
2018-09-03T11:34:11.513Z,18.82
2018-09-03T11:35:11.772Z,18.82
2018-09-03T11:36:12.005Z,18.81
2018-09-03T11:37:12.248Z,18.76
2018-09-03T11:38:12.492Z,18.78
2018-09-03T11:39:12.736Z,18.82
2018-09-03T11:40:12.981Z,18.73
2018-09-03T11:41:13.225Z,18.81
2018-09-03T11:42:13.471Z,18.70
2018-09-03T11:43:13.718Z,18.69
2018-09-03T11:44:13.963Z,18.63
2018-09-03T11:45:14.208Z,18.63
2018-09-03T11:46:14.452Z,18.60
2018-09-03T11:47:14.779Z,18.60
2018-09-03T11:48:14.941Z,18.51
2018-09-03T11:49:15.185Z,18.55
2018-09-03T11:50:15.444Z,18.58
2018-09-03T11:51:15.689Z,18.58
2018-09-03T11:52:15.933Z,18.50
2018-09-03T11:53:16.177Z,18.57
2018-09-03T11:54:16.430Z,18.47
2018-09-03T11:55:16.667Z,18.51
2018-09-03T11:56:16.912Z,18.45
2018-09-03T11:57:17.156Z,18.44
2018-09-03T11:58:17.405Z,18.48
2018-09-03T11:59:17.646Z,18.50
2018-09-03T12:00:17.894Z,18.48
2018-09-03T12:01:18.136Z,18.52
2018-09-03T12:02:18.379Z,18.48
2018-09-03T12:03:18.623Z,18.45
2018-09-03T12:04:18.866Z,18.47
2018-09-03T12:05:19.109Z,18.63
2018-09-03T12:06:19.354Z,18.52
2018-09-03T12:07:19.597Z,18.58
2018-09-03T12:08:19.843Z,18.51
2018-09-03T12:09:20.086Z,18.47
2018-09-03T12:10:20.329Z,18.47
2018-09-03T12:11:20.573Z,18.50
2018-09-03T12:12:20.818Z,18.44
2018-09-03T12:13:21.062Z,18.44
2018-09-03T12:14:21.309Z,18.33
2018-09-03T12:15:21.554Z,18.33
2018-09-03T12:16:21.799Z,18.33
2018-09-03T12:17:22.044Z,18.32
2018-09-03T12:18:22.285Z,18.48
2018-09-03T12:19:22.531Z,18.48
2018-09-03T12:20:22.775Z,18.42
2018-09-03T12:21:23.015Z,18.41
2018-09-03T12:22:23.259Z,18.37
2018-09-03T12:23:23.503Z,18.33
2018-09-03T12:24:23.748Z,18.27
2018-09-03T12:25:23.990Z,18.33
2018-09-03T12:26:24.235Z,18.33
2018-09-03T12:27:24.480Z,18.32
2018-09-03T12:28:24.723Z,18.33
2018-09-03T12:29:24.964Z,18.35
2018-09-03T12:30:25.209Z,18.30
2018-09-03T12:31:25.471Z,18.42
2018-09-03T12:32:25.700Z,18.50
2018-09-03T12:33:25.944Z,18.50
2018-09-03T12:34:26.188Z,18.51
2018-09-03T12:35:26.429Z,18.54
2018-09-03T12:36:26.673Z,18.50
2018-09-03T12:37:26.915Z,18.48
2018-09-03T12:38:27.160Z,18.51
2018-09-03T12:39:27.403Z,18.52
2018-09-03T12:40:27.673Z,18.54
2018-09-03T12:41:27.953Z,18.47
2018-09-03T12:42:28.211Z,18.42
2018-09-03T12:43:28.456Z,18.50
2018-09-03T12:44:28.699Z,18.50
2018-09-03T12:45:28.947Z,18.29
2018-09-03T12:46:29.211Z,18.29
2018-09-03T12:47:29.430Z,18.33
2018-09-03T12:48:29.673Z,18.42
2018-09-03T12:49:29.916Z,18.39
2018-09-03T12:50:30.160Z,18.51
2018-09-03T12:51:30.403Z,18.42
2018-09-03T12:52:30.648Z,18.50
2018-09-03T12:53:30.890Z,18.57
2018-09-03T12:54:31.134Z,18.63
2018-09-03T12:55:31.378Z,18.62